• Join FlightAware (Why Join?)
  • Login
  • US Flag 
08:09AM EDT


 

Airport Tracker/Info


-or-


 

Live Flight TrackerFlight Track Log ✈ MAL8056 ✈ 29-Apr-2013 ✈ CYYZ - CYSB

Flight Track Log - Related Links

Times and Time Zones

All times are in EDT time to prevent confusion due to time zone crossing. See the MAL8056 flight status page for this flight to view local times or setup timezone preferences in your user account.

Time Position Orientation Groundspeed Altitude Reporting Facility
EDT Latitude Longitude Course Direction KTS MPH feet Rate Location/Type
08:11AM 43.6667 -79.6333 360° North 80 92 900  Level Toronto Center
08:12AM 43.7000 -79.6333 360° North 110 127 1,600 780 Climbing Toronto Center
08:13AM 43.7333 -79.6333 360° North 140 161 2,500 900 Climbing Toronto Center
08:14AM 43.7833 -79.6500 346° North 150 173 3,400 900 Climbing Toronto Center
08:15AM 43.8167 -79.6500 360° North 140 161 4,400 780 Climbing Toronto Center
08:16AM 43.8500 -79.6500 360° North 140 161 5,000 360 Climbing Toronto Center
08:17AM 43.9000 -79.6500 360° North 170 196 5,200 420 Climbing Toronto Center
08:18AM 43.9500 -79.6833 334° Northwest 160 184 5,900 660 Climbing Toronto Center
08:19AM 43.9833 -79.6833 360° North 150 173 6,600 660 Climbing Toronto Center
08:20AM 44.0167 -79.7000 340° North 150 173 7,300 600 Climbing Toronto Center
08:21AM 44.0667 -79.7333 334° Northwest 150 173 7,900 300 Climbing Toronto Center
08:22AM 44.1167 -79.7500 347° North 170 196 8,000  Climbing Toronto Center
08:23AM 44.1500 -79.7500 360° North 180 207 8,000  Level Toronto Center
08:24AM 44.2000 -79.7667 347° North 180 207 8,000  Level Toronto Center
08:25AM 44.2500 -79.8000 334° Northwest 180 207 8,000  Level Toronto Center
08:26AM 44.3000 -79.8167 347° North 180 207 8,000  Level Toronto Center
08:27AM 44.3500 -79.8500 335° Northwest 180 207 8,000  Level Toronto Center
08:28AM 44.3833 -79.8500 360° North 180 207 8,000  Level Toronto Center
08:29AM 44.4333 -79.8667 347° North 170 196 8,000  Level Toronto Center
08:30AM 44.4833 -79.8833 347° North 170 196 8,000  Level Toronto Center
08:31AM 44.5333 -79.9167 335° Northwest 170 196 8,000  Level Toronto Center
08:32AM 44.5833 -79.9333 347° North 170 196 8,000  Level Toronto Center
08:33AM 44.6167 -79.9333 360° North 180 207 8,000  Level Toronto Center
08:34AM 44.6667 -79.9667 335° Northwest 180 207 8,000  Level Toronto Center
08:35AM 44.7167 -79.9833 347° North 180 207 8,000  Level Toronto Center
08:36AM 44.7667 -80.0000 347° North 180 207 8,000  Level Toronto Center
08:37AM 44.8167 -80.0333 335° Northwest 180 207 8,000  Level Toronto Center
08:38AM 44.8667 -80.0500 347° North 180 207 8,000  Level Toronto Center
08:39AM 44.9167 -80.0500 360° North 180 207 8,000  Level Toronto Center
08:40AM 44.9500 -80.0833 325° Northwest 180 207 8,000  Level Toronto Center
08:41AM 45.0000 -80.1000 347° North 180 207 8,000  Level Toronto Center
08:42AM 45.0500 -80.1333 335° Northwest 180 207 8,000  Level Toronto Center
08:43AM 45.1000 -80.1333 360° North 170 196 8,000  Level Toronto Center
08:44AM 45.1500 -80.1500 347° North 180 207 8,000  Level Toronto Center
08:45AM 45.1833 -80.1833 325° Northwest 170 196 8,000  Level Toronto Center
08:46AM 45.2333 -80.2000 347° North 170 196 8,000  Level Toronto Center
08:47AM 45.2833 -80.2167 347° North 170 196 8,000  Level Toronto Center
08:48AM 45.3333 -80.2333 347° North 170 196 8,000  Level Toronto Center
08:49AM 45.3667 -80.2500 341° North 170 196 8,000  Level Toronto Center
08:50AM 45.4167 -80.2667 347° North 170 196 8,000  Level Toronto Center
08:51AM 45.4667 -80.3000 335° Northwest 170 196 8,000  Level Toronto Center
08:52AM 45.5167 -80.3000 360° North 170 196 8,000  Level Toronto Center
08:53AM 45.5500 -80.3167 341° North 170 196 8,000  Level Toronto Center
08:54AM 45.6000 -80.3500 335° Northwest 170 196 8,000  Level Toronto Center
08:55AM 45.6500 -80.3667 347° North 170 196 8,000  Level Toronto Center
08:56AM 45.6833 -80.3667 360° North 170 196 8,000  Level Toronto Center
08:57AM 45.7333 -80.4000 335° Northwest 170 196 8,000  Level Toronto Center
08:58AM 45.7833 -80.4000 360° North 170 196 8,000  Level Toronto Center
08:59AM 45.8333 -80.4167 347° North 170 196 8,000  Level Toronto Center
09:00AM 45.8833 -80.4167 360° North 170 196 8,000  Level Toronto Center
09:01AM 45.9333 -80.4500 335° Northwest 170 196 8,000  Level Toronto Center
09:02AM 45.9667 -80.4500 360° North 170 196 8,000  Level Toronto Center
09:03AM 46.0167 -80.4667 347° North 170 196 8,000  Level Toronto Center
09:04AM 46.0667 -80.4667 360° North 170 196 8,000 -180 Level Toronto Center
09:05AM 46.1167 -80.4667 360° North 170 196 7,700 -360 Descending Toronto Center
09:06AM 46.1667 -80.5000 335° Northwest 180 207 7,300 -360 Descending Toronto Center
09:07AM 46.2167 -80.5000 360° North 180 207 7,000 -360 Descending Toronto Center
09:08AM 46.2667 -80.5167 347° North 180 207 6,600 -360 Descending Toronto Center
09:09AM 46.3167 -80.5167 360° North 180 207 6,300 -300 Descending Toronto Center
09:10AM 46.3667 -80.5500 335° Northwest 180 207 6,000 -360 Descending Toronto Center
09:11AM 46.4167 -80.5500 360° North 180 207 5,600 -360 Descending Toronto Center
09:12AM 46.4667 -80.5833 335° Northwest 180 207 5,300 -360 Descending Toronto Center
09:13AM 46.5167 -80.5833 360° North 180 207 4,900 -360 Descending Toronto Center
09:14AM 46.5500 -80.6000 341° North 180 207 4,600 -300 Descending Toronto Center
09:15AM 46.6000 -80.6000 360° North 180 207 4,300 -360 Descending Toronto Center
09:16AM 46.6500 -80.6333 335° Northwest 180 207 3,900 -480 Descending Toronto Center
09:17AM 46.7000 -80.6333 360° North 190 219 3,400 -240 Descending Toronto Center
09:18AM 46.7500 -80.6500 347° North 180 207 3,500  Climbing Toronto Center
09:19AM 46.7667 -80.6833 306° West 110 127 3,500  Level Toronto Center
09:20AM 46.7333 -80.7000 199° South 110 127 3,500 -300 Level Toronto Center
09:21AM 46.7000 -80.7000 180° South 110 127 3,000 -600 Descending Toronto Center
09:22AM 46.6833 -80.7333 234° Southwest 110 127 2,400 -600 Descending Toronto Center
09:23AM 46.6500 -80.7500 199° South 100 115 1,900 -540 Descending Toronto Center